Time;durP1;ratioP1;P1;durP2;ratioP2;P2;SDS_P1;SDS_P2;PMS_P1;PMS_P2;Temp;Humidity;BMP_temperature;BMP_pressure;BME280_temperature;BME280_humidity;BME280_pressure;Samples;Min_cycle;Max_cycle;Signal;HPM_P1;HPM_P2
2021/07/09 00:00:42;;;;;;;15.57;8.82;;;17.40;99.90;;;;;;5095249;28;20131;-87
2021/07/09 00:03:32;;;;;;;17.17;11.13;;;17.50;99.90;;;;;;5093831;28;20524;-85
2021/07/09 00:06:22;;;;;;;21.00;12.13;;;17.50;99.90;;;;;;5079539;28;20048;-85
2021/07/09 00:09:10;;;;;;;16.40;10.90;;;17.40;99.90;;;;;;5094078;28;20075;-85
2021/07/09 00:11:57;;;;;;;16.65;10.35;;;17.40;99.90;;;;;;5080342;28;20622;-86
2021/07/09 00:14:44;;;;;;;18.17;12.80;;;17.40;99.90;;;;;;5079439;28;20218;-85
2021/07/09 00:17:31;;;;;;;23.92;13.75;;;17.40;99.90;;;;;;5078659;28;20079;-85
2021/07/09 00:20:19;;;;;;;21.95;12.68;;;17.30;99.90;;;;;;5079032;28;20424;-85
2021/07/09 00:23:07;;;;;;;18.25;12.10;;;17.30;99.90;;;;;;5079069;28;20046;-87
2021/07/09 00:25:54;;;;;;;22.45;14.00;;;17.40;99.90;;;;;;5079060;28;20431;-85
2021/07/09 00:28:41;;;;;;;20.42;13.07;;;17.40;99.90;;;;;;5079434;28;20044;-85
2021/07/09 00:31:30;;;;;;;20.08;14.68;;;17.30;99.90;;;;;;5078614;28;20424;-85
2021/07/09 00:34:19;;;;;;;19.98;14.25;;;17.30;99.90;;;;;;5059586;28;20072;-85
2021/07/09 00:37:06;;;;;;;26.52;16.77;;;17.30;99.90;;;;;;5072106;28;20093;-86
2021/07/09 00:39:54;;;;;;;22.55;16.08;;;17.30;99.90;;;;;;5057405;28;20127;-86
2021/07/09 00:42:42;;;;;;;19.67;14.70;;;17.20;99.90;;;;;;5058532;28;20040;-85
2021/07/09 00:45:29;;;;;;;22.02;15.32;;;17.30;99.90;;;;;;5057722;28;20048;-85
2021/07/09 00:48:17;;;;;;;23.60;14.57;;;17.40;99.90;;;;;;5071911;28;20127;-86
2021/07/09 00:51:05;;;;;;;22.77;15.93;;;17.60;99.90;;;;;;5057430;28;20053;-85
2021/07/09 00:53:52;;;;;;;28.05;16.48;;;17.50;99.90;;;;;;5057249;28;20044;-85
2021/07/09 00:56:42;;;;;;;22.52;15.15;;;17.50;99.90;;;;;;5072029;28;20045;-85
2021/07/09 00:59:29;;;;;;;21.38;15.93;;;17.50;99.90;;;;;;5058124;28;20049;-86
2021/07/09 01:02:16;;;;;;;21.88;15.68;;;17.60;99.90;;;;;;5058152;28;20435;-86
2021/07/09 01:05:06;;;;;;;21.85;14.60;;;17.60;99.90;;;;;;5062569;28;20044;-85
2021/07/09 01:07:53;;;;;;;19.67;14.23;;;17.60;99.90;;;;;;5092244;28;20050;-85
2021/07/09 01:10:41;;;;;;;23.40;14.25;;;17.60;99.90;;;;;;5077867;28;20512;-86
2021/07/09 01:13:30;;;;;;;20.08;14.15;;;17.60;99.90;;;;;;5077028;28;20075;-86
2021/07/09 01:16:17;;;;;;;22.35;14.63;;;17.70;99.90;;;;;;5076739;28;20424;-86
2021/07/09 01:19:07;;;;;;;26.95;16.45;;;17.70;99.90;;;;;;5077876;28;20051;-86
2021/07/09 01:21:55;;;;;;;;;;;17.60;99.90;;;;;;5078542;28;20036;-85
2021/07/09 01:24:44;;;;;;;24.38;17.15;;;17.50;99.90;;;;;;5077439;28;19942;-86
2021/07/09 01:27:31;;;;;;;26.35;18.50;;;17.40;99.90;;;;;;5077981;28;20044;-85
2021/07/09 01:30:21;;;;;;;23.95;17.88;;;17.40;99.90;;;;;;5078450;28;20048;-85
2021/07/09 01:33:08;;;;;;;27.90;17.38;;;17.40;99.90;;;;;;5077168;28;20504;-85
2021/07/09 01:35:55;;;;;;;24.90;16.10;;;17.50;99.90;;;;;;5078568;28;20505;-85
2021/07/09 01:38:43;;;;;;;27.45;19.08;;;17.50;99.90;;;;;;5078233;28;20044;-86
2021/07/09 01:41:31;;;;;;;26.65;19.38;;;17.40;99.90;;;;;;5078043;28;20044;-86
2021/07/09 01:44:18;;;;;;;27.00;17.77;;;17.40;99.90;;;;;;5078600;28;20052;-86
2021/07/09 01:47:06;;;;;;;29.88;19.92;;;17.40;99.90;;;;;;5079461;28;20040;-86
2021/07/09 01:49:55;;;;;;;28.40;19.75;;;17.40;99.90;;;;;;5078043;28;20051;-85
2021/07/09 01:52:42;;;;;;;31.00;20.57;;;17.40;99.90;;;;;;5078569;28;20040;-85
2021/07/09 01:55:30;;;;;;;27.33;19.75;;;17.40;99.90;;;;;;5078315;28;20063;-85
2021/07/09 01:58:18;;;;;;;30.55;18.83;;;17.50;99.90;;;;;;5093206;28;20048;-85
2021/07/09 02:01:06;;;;;;;23.75;17.42;;;17.50;99.90;;;;;;5077313;28;20044;-85
2021/07/09 02:03:53;;;;;;;28.50;19.33;;;17.50;99.90;;;;;;5078548;28;20040;-86
2021/07/09 02:06:40;;;;;;;28.27;19.30;;;17.50;99.90;;;;;;5079348;28;20097;-85
2021/07/09 02:09:27;;;;;;;32.72;20.20;;;17.40;99.90;;;;;;5092593;28;20483;-86
2021/07/09 02:12:16;;;;;;;32.45;20.45;;;17.40;99.90;;;;;;5079030;28;20032;-85
2021/07/09 02:15:09;;;;;;;32.43;21.53;;;17.30;99.90;;;;;;5076319;28;20044;-86
2021/07/09 02:17:56;;;;;;;31.60;20.85;;;17.40;99.90;;;;;;5077690;28;20358;-85
2021/07/09 02:20:44;;;;;;;30.30;20.67;;;17.10;99.90;;;;;;5077812;28;20050;-85
2021/07/09 02:23:31;;;;;;;31.63;20.92;;;17.10;99.90;;;;;;5077911;28;20044;-85
2021/07/09 02:26:18;;;;;;;30.67;22.17;;;17.10;99.90;;;;;;5077623;28;20052;-86
2021/07/09 02:29:05;;;;;;;29.88;21.85;;;17.00;99.90;;;;;;5077878;28;20044;-85
2021/07/09 02:31:54;;;;;;;31.15;22.17;;;17.00;99.90;;;;;;5077874;28;20041;-86
2021/07/09 02:34:41;;;;;;;32.33;21.05;;;16.90;99.90;;;;;;5093353;28;20121;-86
2021/07/09 02:37:28;;;;;;;32.92;21.55;;;16.90;99.90;;;;;;5078287;28;20044;-85
2021/07/09 02:40:18;;;;;;;36.75;22.48;;;16.90;99.90;;;;;;5078539;28;20131;-85
2021/07/09 02:43:06;;;;;;;29.50;21.83;;;16.90;99.90;;;;;;5081956;28;20372;-85
2021/07/09 02:45:54;;;;;;;36.35;22.92;;;16.90;99.90;;;;;;5097434;28;20129;-85
2021/07/09 02:48:42;;;;;;;33.65;21.85;;;16.80;99.90;;;;;;5095895;28;20043;-86
2021/07/09 02:51:29;;;;;;;32.53;21.02;;;16.90;99.90;;;;;;5081920;28;20178;-86
2021/07/09 02:54:17;;;;;;;32.53;21.58;;;16.90;99.90;;;;;;5081877;28;20044;-86
2021/07/09 02:57:04;;;;;;;33.28;21.13;;;16.80;99.90;;;;;;5082834;28;20054;-87
2021/07/09 02:59:51;;;;;;;28.45;21.13;;;16.80;99.90;;;;;;5081675;28;20044;-86
2021/07/09 03:02:38;;;;;;;31.95;21.65;;;16.80;99.90;;;;;;5081979;28;20115;-85
2021/07/09 03:05:26;;;;;;;30.08;21.15;;;16.90;99.90;;;;;;5080720;28;20148;-85
2021/07/09 03:08:14;;;;;;;27.02;20.48;;;16.90;99.90;;;;;;5081667;28;20409;-86
2021/07/09 03:11:01;;;;;;;28.40;19.85;;;16.90;99.90;;;;;;5082194;28;20078;-85
2021/07/09 03:13:48;;;;;;;28.63;19.65;;;17.00;99.90;;;;;;5075357;28;20063;-86
2021/07/09 03:16:36;;;;;;;33.03;20.85;;;17.10;99.90;;;;;;5075032;28;20124;-86
2021/07/09 03:19:23;;;;;;;32.05;20.77;;;17.20;99.90;;;;;;5074146;28;20493;-86
2021/07/09 03:22:12;;;;;;;30.13;19.38;;;17.10;99.90;;;;;;5075165;28;20132;-86
2021/07/09 03:25:00;;;;;;;29.25;21.15;;;17.00;99.90;;;;;;5075674;28;20044;-85
2021/07/09 03:27:47;;;;;;;30.25;20.27;;;16.90;99.90;;;;;;5074411;28;20131;-85
2021/07/09 03:30:34;;;;;;;33.25;20.75;;;16.80;99.90;;;;;;5059659;28;20432;-86
2021/07/09 03:33:21;;;;;;;31.88;21.13;;;16.80;99.90;;;;;;5087499;28;20054;-85
2021/07/09 03:36:08;;;;;;;31.45;21.08;;;16.90;99.90;;;;;;5080843;28;20058;-86
2021/07/09 03:38:57;;;;;;;30.73;20.63;;;16.90;99.90;;;;;;5081566;28;20123;-86
2021/07/09 03:41:45;;;;;;;33.70;21.47;;;16.90;99.90;;;;;;5080776;28;20123;-86
2021/07/09 03:44:32;;;;;;;32.67;21.58;;;16.70;99.90;;;;;;5096440;28;20365;-85
2021/07/09 03:47:19;;;;;;;31.88;20.80;;;16.50;99.90;;;;;;5095841;28;20108;-86
2021/07/09 03:50:07;;;;;;;29.42;19.83;;;16.40;99.90;;;;;;5081411;28;20044;-86
2021/07/09 03:52:55;;;;;;;31.67;21.02;;;16.40;99.90;;;;;;5079214;28;20040;-87
2021/07/09 03:55:43;;;;;;;30.58;19.45;;;16.40;99.90;;;;;;5081242;28;20081;-85
2021/07/09 03:58:32;;;;;;;27.42;19.95;;;16.30;99.90;;;;;;5081006;28;20132;-85
2021/07/09 04:01:19;;;;;;;31.98;18.77;;;16.30;99.90;;;;;;5080893;28;20156;-86
2021/07/09 04:04:06;;;;;;;26.60;17.83;;;16.30;99.90;;;;;;5081044;28;20044;-86
2021/07/09 04:06:53;;;;;;;31.67;18.35;;;16.30;99.90;;;;;;5080013;28;20565;-86
2021/07/09 04:09:40;;;;;;;26.10;17.45;;;16.30;99.90;;;;;;5081569;28;20089;-86
2021/07/09 04:12:28;;;;;;;28.27;17.20;;;16.30;99.90;;;;;;5097767;28;20050;-85
2021/07/09 04:15:15;;;;;;;27.85;17.27;;;16.20;99.90;;;;;;5093973;28;20419;-86
2021/07/09 04:18:03;;;;;;;26.15;17.95;;;16.20;99.90;;;;;;5094108;28;20047;-85
2021/07/09 04:20:50;;;;;;;30.42;17.67;;;16.20;99.90;;;;;;5078773;28;20113;-86
2021/07/09 04:23:37;;;;;;;26.60;16.77;;;16.20;99.90;;;;;;5079012;28;20500;-85
2021/07/09 04:26:24;;;;;;;24.15;17.33;;;16.20;99.90;;;;;;5079264;28;20048;-85
2021/07/09 04:29:12;;;;;;;23.45;16.45;;;16.20;99.90;;;;;;5078931;28;20054;-85
2021/07/09 04:31:59;;;;;;;26.40;16.33;;;16.20;99.90;;;;;;5077188;28;20390;-86
2021/07/09 04:34:47;;;;;;;26.15;16.80;;;16.20;99.90;;;;;;5080144;28;20040;-86
2021/07/09 04:37:34;;;;;;;29.65;17.13;;;16.10;99.90;;;;;;5079210;28;20040;-86
2021/07/09 04:40:22;;;;;;;28.70;16.65;;;16.10;99.90;;;;;;5079053;28;20051;-85
2021/07/09 04:43:09;;;;;;;28.98;17.30;;;16.10;99.90;;;;;;5093228;28;20044;-85
2021/07/09 04:45:57;;;;;;;29.52;18.15;;;16.20;99.90;;;;;;5079853;28;20044;-85
2021/07/09 04:48:44;;;;;;;28.17;16.58;;;16.20;99.90;;;;;;5077067;28;20131;-87
2021/07/09 04:51:31;;;;;;;25.15;17.40;;;16.20;99.90;;;;;;5092745;28;20465;-85
2021/07/09 04:54:18;;;;;;;27.85;17.25;;;16.30;99.90;;;;;;5078956;28;20413;-85
2021/07/09 04:57:06;;;;;;;28.60;17.20;;;16.30;99.90;;;;;;5078830;28;20051;-86
2021/07/09 04:59:53;;;;;;;26.90;17.73;;;16.30;99.90;;;;;;5092801;28;20147;-85
2021/07/09 05:02:41;;;;;;;31.88;18.08;;;16.30;99.90;;;;;;5079659;28;20528;-85
2021/07/09 05:05:28;;;;;;;27.23;17.00;;;16.30;99.90;;;;;;5076227;28;20420;-86
2021/07/09 05:08:15;;;;;;;28.50;18.38;;;16.30;99.90;;;;;;5078758;28;20127;-85
2021/07/09 05:11:03;;;;;;;29.63;18.27;;;16.30;99.90;;;;;;5093829;28;20445;-85
2021/07/09 05:13:50;;;;;;;31.40;18.92;;;16.40;99.90;;;;;;5059651;28;20509;-85
2021/07/09 05:16:37;;;;;;;29.50;17.63;;;16.30;99.90;;;;;;5057260;28;20052;-86
2021/07/09 05:19:25;;;;;;;27.15;17.35;;;16.30;99.90;;;;;;5057544;28;20055;-86
2021/07/09 05:22:12;;;;;;;29.33;18.25;;;16.40;99.90;;;;;;5071797;28;20040;-85
2021/07/09 05:25:00;;;;;;;26.40;18.00;;;16.50;99.90;;;;;;5058092;28;20044;-86
2021/07/09 05:27:47;;;;;;;30.73;18.13;;;16.40;99.90;;;;;;5057900;28;20127;-85
2021/07/09 05:30:34;;;;;;;27.10;18.70;;;16.40;99.90;;;;;;5072177;28;20078;-86
2021/07/09 05:33:21;;;;;;;26.00;17.88;;;16.40;99.90;;;;;;5071473;28;20123;-85
2021/07/09 05:36:10;;;;;;;33.00;19.55;;;16.40;99.90;;;;;;5079092;28;20051;-86
2021/07/09 05:38:57;;;;;;;28.80;17.90;;;17.40;99.90;;;;;;5078925;28;20044;-85
2021/07/09 05:41:44;;;;;;;25.15;17.38;;;16.60;99.90;;;;;;5079064;28;20465;-86
2021/07/09 05:44:31;;;;;;;25.38;17.17;;;16.70;99.90;;;;;;5078376;28;20058;-85
2021/07/09 05:47:18;;;;;;;25.75;16.30;;;16.80;99.90;;;;;;5078671;28;20048;-86
2021/07/09 05:50:07;;;;;;;26.23;16.52;;;16.90;99.90;;;;;;5078654;28;20071;-85
2021/07/09 05:52:55;;;;;;;28.63;16.77;;;16.80;99.90;;;;;;5078303;28;20135;-86
2021/07/09 05:55:43;;;;;;;26.27;15.43;;;16.90;99.90;;;;;;5076821;28;20077;-85
2021/07/09 05:58:30;;;;;;;22.10;15.07;;;16.90;99.90;;;;;;5093763;28;20044;-86
2021/07/09 06:01:17;;;;;;;27.40;16.40;;;18.80;99.90;;;;;;5092649;28;20098;-86
2021/07/09 06:04:05;;;;;;;21.90;15.32;;;17.10;99.90;;;;;;5078609;28;20128;-86
2021/07/09 06:06:52;;;;;;;24.80;16.17;;;17.10;99.90;;;;;;5092632;28;20062;-86
2021/07/09 06:09:40;;;;;;;23.42;14.98;;;17.20;99.90;;;;;;5093279;28;20048;-87
2021/07/09 06:12:27;;;;;;;23.98;15.30;;;17.20;99.90;;;;;;5077068;28;20180;-86
2021/07/09 06:15:14;;;;;;;23.73;16.05;;;17.30;99.90;;;;;;5078136;28;20040;-86
2021/07/09 06:18:01;;;;;;;23.00;15.43;;;17.30;99.90;;;;;;5081493;28;20050;-86
2021/07/09 06:20:49;;;;;;;26.38;16.67;;;17.30;99.90;;;;;;5080985;28;20527;-86
2021/07/09 06:23:36;;;;;;;24.00;15.45;;;17.30;99.90;;;;;;5081012;28;20465;-87
2021/07/09 06:26:24;;;;;;;22.58;16.38;;;17.40;99.90;;;;;;5081565;28;20534;-86
2021/07/09 06:29:11;;;;;;;24.83;16.35;;;17.40;99.90;;;;;;5096489;28;20044;-85
2021/07/09 06:31:58;;;;;;;23.38;16.63;;;17.40;99.90;;;;;;5082238;28;20048;-85
2021/07/09 06:34:45;;;;;;;23.77;16.80;;;17.40;99.90;;;;;;5082874;28;20040;-86
2021/07/09 06:37:32;;;;;;;24.10;16.83;;;17.40;99.90;;;;;;5082603;28;20054;-87
2021/07/09 06:40:20;;;;;;;26.42;16.52;;;17.40;99.90;;;;;;5097544;28;20040;-86
2021/07/09 06:43:08;;;;;;;25.10;16.13;;;17.50;99.90;;;;;;5083220;28;20032;-87
2021/07/09 06:45:55;;;;;;;24.85;16.65;;;17.60;99.90;;;;;;5083083;28;20059;-87
2021/07/09 06:48:42;;;;;;;19.35;14.15;;;17.60;99.90;;;;;;5082581;28;20123;-86
2021/07/09 06:51:29;;;;;;;22.75;16.83;;;17.80;99.90;;;;;;5096388;28;20079;-87
2021/07/09 06:54:16;;;;;;;22.25;15.48;;;17.70;99.90;;;;;;5083096;28;20505;-86
2021/07/09 06:57:03;;;;;;;26.85;16.92;;;17.70;99.90;;;;;;5082580;28;20044;-87
2021/07/09 06:59:52;;;;;;;25.08;16.48;;;17.80;99.90;;;;;;5081545;28;20051;-87
2021/07/09 07:02:39;;;;;;;23.92;15.32;;;17.80;99.90;;;;;;5082621;28;20463;-87
2021/07/09 07:05:26;;;;;;;23.88;15.18;;;17.90;99.90;;;;;;5082212;28;20493;-86
2021/07/09 07:08:15;;;;;;;25.13;14.82;;;17.90;99.90;;;;;;5081617;28;20048;-86
2021/07/09 07:11:02;;;;;;;22.63;16.13;;;17.90;99.90;;;;;;5083455;28;20048;-88
2021/07/09 07:13:49;;;;;;;21.50;14.95;;;17.90;99.90;;;;;;5077204;28;20041;-87
2021/07/09 07:16:37;;;;;;;21.85;14.75;;;17.90;99.90;;;;;;5075017;28;20524;-86
2021/07/09 07:19:25;;;;;;;21.67;15.30;;;17.80;99.90;;;;;;5074865;28;20059;-86
2021/07/09 07:22:13;;;;;;;23.10;14.40;;;17.90;99.90;;;;;;5075570;28;20049;-86
2021/07/09 07:25:00;;;;;;;22.13;14.43;;;18.00;99.90;;;;;;5076831;28;20497;-86
2021/07/09 07:27:47;;;;;;;22.33;15.55;;;17.90;99.90;;;;;;5075077;28;20044;-86
2021/07/09 07:30:35;;;;;;;20.58;13.85;;;18.00;99.90;;;;;;5074139;28;20581;-86
2021/07/09 07:33:23;;;;;;;22.85;15.00;;;18.00;99.90;;;;;;5089267;28;20044;-87
2021/07/09 07:36:30;;;;;;;22.55;14.93;;;18.00;99.90;;;;;;5085771;28;20062;-86
2021/07/09 07:39:17;;;;;;;23.38;15.00;;;18.10;99.90;;;;;;5081940;28;20169;-86
2021/07/09 07:42:05;;;;;;;21.95;15.50;;;18.10;99.90;;;;;;5084064;28;20055;-86
2021/07/09 07:44:53;;;;;;;23.60;15.10;;;18.00;99.90;;;;;;5082877;28;20047;-86
2021/07/09 07:47:40;;;;;;;25.75;16.05;;;17.70;99.90;;;;;;5082825;28;20048;-87
2021/07/09 07:50:28;;;;;;;25.23;15.10;;;17.60;99.90;;;;;;5098423;28;20123;-87
2021/07/09 07:53:15;;;;;;;22.58;15.80;;;17.60;99.90;;;;;;5096395;28;20040;-86
2021/07/09 07:56:03;;;;;;;24.95;15.80;;;17.60;99.90;;;;;;5083875;28;20424;-87
2021/07/09 07:58:52;;;;;;;23.92;16.25;;;17.50;99.90;;;;;;5082143;28;20050;-87
2021/07/09 08:01:40;;;;;;;26.90;16.60;;;17.70;99.90;;;;;;5083921;28;20062;-86
2021/07/09 08:04:27;;;;;;;26.83;16.38;;;17.70;99.90;;;;;;5082665;28;20044;-87
2021/07/09 08:07:16;;;;;;;31.92;19.48;;;17.70;99.90;;;;;;5082470;28;20044;-86
2021/07/09 08:10:04;;;;;;;28.00;18.38;;;17.70;99.90;;;;;;5097303;28;20446;-87
2021/07/09 08:12:51;;;;;;;25.52;18.02;;;17.70;99.90;;;;;;5084415;28;20048;-87
2021/07/09 08:15:38;;;;;;;26.05;18.85;;;17.80;99.90;;;;;;5082993;28;20051;-87
2021/07/09 08:18:25;;;;;;;25.65;17.70;;;17.80;99.90;;;;;;5083534;28;20050;-87
2021/07/09 08:21:12;;;;;;;27.10;18.50;;;17.80;99.90;;;;;;5083418;28;20044;-86
2021/07/09 08:24:01;;;;;;;28.55;18.27;;;17.90;99.90;;;;;;5083878;28;20040;-87
2021/07/09 08:26:48;;;;;;;26.00;17.25;;;17.90;99.90;;;;;;5083154;28;20044;-87
2021/07/09 08:29:35;;;;;;;25.50;16.38;;;18.00;99.90;;;;;;5083859;28;20591;-88
2021/07/09 08:32:23;;;;;;;26.58;16.20;;;18.00;99.90;;;;;;5083713;28;20180;-87
2021/07/09 08:35:11;;;;;;;21.33;15.35;;;18.10;99.90;;;;;;5084700;28;20066;-87
2021/07/09 08:38:10;;;;;;;24.30;16.85;;;18.30;99.90;;;;;;5085320;28;20055;-88
2021/07/09 08:40:58;;;;;;;23.17;15.73;;;18.30;99.90;;;;;;5082059;28;20117;-87
2021/07/09 08:43:50;;;;;;;23.23;15.45;;;18.40;99.90;;;;;;5084213;28;20067;-86
2021/07/09 08:46:38;;;;;;;22.15;14.48;;;18.50;99.90;;;;;;5096513;28;20062;-88
2021/07/09 08:49:26;;;;;;;21.85;14.65;;;18.50;99.90;;;;;;5083375;28;20072;-87
2021/07/09 08:52:13;;;;;;;22.90;14.07;;;18.50;99.90;;;;;;5085319;28;20056;-87
2021/07/09 08:55:00;;;;;;;21.95;13.63;;;18.70;99.90;;;;;;5088189;28;20506;-86
2021/07/09 08:57:49;;;;;;;19.48;13.38;;;18.70;99.90;;;;;;5083248;28;20051;-85
2021/07/09 09:00:56;;;;;;;23.20;13.73;;;18.60;99.90;;;;;;5080912;28;20036;-86
2021/07/09 09:03:43;;;;;;;19.67;13.55;;;18.60;99.90;;;;;;5093023;28;20040;-86
2021/07/09 09:06:31;;;;;;;22.85;14.63;;;18.40;99.90;;;;;;5078184;28;20584;-85
2021/07/09 09:09:18;;;;;;;28.35;17.25;;;18.60;99.90;;;;;;5093294;28;20520;-85
2021/07/09 09:12:09;;;;;;;24.27;17.08;;;18.70;99.90;;;;;;5077931;28;20040;-86
2021/07/09 09:14:57;;;;;;;24.20;17.48;;;18.80;99.90;;;;;;5078105;28;20039;-87
2021/07/09 09:17:44;;;;;;;22.02;16.30;;;18.90;99.90;;;;;;5078147;28;20048;-86
2021/07/09 09:20:31;;;;;;;20.88;15.65;;;18.80;99.90;;;;;;5078165;28;20508;-86
2021/07/09 09:23:18;;;;;;;23.70;15.95;;;18.90;99.90;;;;;;5078319;28;20040;-86
2021/07/09 09:26:06;;;;;;;23.40;16.08;;;19.00;99.90;;;;;;5078000;28;20044;-86
2021/07/09 09:28:53;;;;;;;21.90;14.20;;;19.00;99.90;;;;;;5091601;28;20752;-86
2021/07/09 09:31:42;;;;;;;21.25;13.55;;;18.80;99.90;;;;;;5078585;28;20051;-86
2021/07/09 09:34:35;;;;;;;21.70;14.77;;;18.80;99.90;;;;;;5077417;28;20472;-86
2021/07/09 09:37:30;;;;;;;22.55;14.15;;;18.70;99.90;;;;;;5078664;28;20051;-85
2021/07/09 09:40:18;;;;;;;21.80;12.82;;;18.60;99.90;;;;;;5077919;28;20501;-85
2021/07/09 09:43:08;;;;;;;20.00;12.82;;;18.80;99.90;;;;;;5079202;28;20107;-87
2021/07/09 09:46:01;;;;;;;17.35;12.82;;;18.80;99.90;;;;;;5082712;28;20122;-87
2021/07/09 09:48:49;;;;;;;18.38;11.15;;;18.90;99.90;;;;;;5081963;28;20126;-87
2021/07/09 09:51:37;;;;;;;16.10;11.05;;;18.90;99.90;;;;;;5098048;28;20044;-87
2021/07/09 09:54:33;;;;;;;19.95;11.35;;;18.90;99.90;;;;;;5082778;28;20100;-88
2021/07/09 09:57:20;;;;;;;15.63;10.73;;;19.10;99.90;;;;;;5083857;28;20043;-85
2021/07/09 10:00:10;;;;;;;15.43;10.15;;;19.10;99.90;;;;;;5081839;28;20127;-87
2021/07/09 10:03:02;;;;;;;19.02;11.32;;;19.00;99.90;;;;;;5082297;28;20036;-87
2021/07/09 10:05:52;;;;;;;17.35;10.80;;;19.00;99.90;;;;;;5083445;28;20036;-86
2021/07/09 10:08:38;;;;;;;;;;;18.80;99.90;;;;;;5082789;28;20131;-86
2021/07/09 10:11:26;;;;;;;17.90;10.25;;;18.90;99.90;;;;;;5083060;28;20018;-88
2021/07/09 10:14:15;;;;;;;14.82;9.57;;;18.80;99.90;;;;;;5083174;28;20050;-87
2021/07/09 10:17:08;;;;;;;15.75;9.75;;;18.80;99.90;;;;;;5083724;28;20044;-87
2021/07/09 10:19:58;;;;;;;14.90;9.52;;;18.80;99.90;;;;;;5081953;28;20055;-86
2021/07/09 10:23:02;;;;;;;19.52;10.32;;;18.70;99.90;;;;;;5085654;28;20040;-88
2021/07/09 10:25:50;;;;;;;17.02;9.70;;;18.70;99.90;;;;;;5082215;28;20523;-88
2021/07/09 10:28:38;;;;;;;16.08;9.93;;;18.60;99.90;;;;;;5083665;28;20508;-87
2021/07/09 10:31:35;;;;;;;14.13;9.10;;;18.50;99.90;;;;;;5082304;28;20052;-87
2021/07/09 10:34:27;;;;;;;14.18;8.52;;;18.60;99.90;;;;;;5079043;28;20033;-86
2021/07/09 10:37:18;;;;;;;12.50;8.38;;;18.80;99.90;;;;;;5075021;28;20509;-87
2021/07/09 10:40:09;;;;;;;11.70;8.15;;;18.70;99.90;;;;;;5070540;28;20425;-86
2021/07/09 10:42:56;;;;;;;14.15;8.60;;;18.70;99.90;;;;;;5073072;28;20037;-86
2021/07/09 10:45:45;;;;;;;12.38;8.30;;;18.70;99.90;;;;;;5071313;28;20046;-85
2021/07/09 10:48:35;;;;;;;12.60;7.55;;;18.80;99.90;;;;;;5071625;28;20048;-86
2021/07/09 10:51:43;;;;;;;13.40;7.32;;;18.70;99.90;;;;;;5071276;28;20079;-86
2021/07/09 10:54:30;;;;;;;10.63;7.18;;;18.70;99.90;;;;;;5071035;28;20104;-86
2021/07/09 10:57:20;;;;;;;13.15;7.97;;;18.60;99.90;;;;;;5073764;28;20049;-87
2021/07/09 11:00:20;;;;;;;;;;;18.40;99.90;;;;;;5072467;28;20055;-86
2021/07/09 11:03:07;;;;;;;10.50;7.00;;;18.40;99.90;;;;;;5059743;28;19920;-86
2021/07/09 11:06:02;;;;;;;11.02;7.30;;;18.40;99.90;;;;;;5075612;28;20037;-86
2021/07/09 11:09:05;;;;;;;10.73;7.38;;;18.40;99.90;;;;;;5075159;28;20044;-86
2021/07/09 11:12:02;;;;;;;11.30;6.80;;;18.50;99.90;;;;;;5065763;28;20161;-87
2021/07/09 11:15:00;;;;;;;12.00;6.70;;;18.50;99.90;;;;;;5080473;22;20102;-89
2021/07/09 11:17:47;;;;;;;10.55;6.22;;;18.70;99.90;;;;;;5089901;28;20056;-88
2021/07/09 11:20:40;;;;;;;12.43;6.80;;;18.50;99.90;;;;;;5075087;28;20086;-90
2021/07/09 11:23:33;;;;;;;10.52;5.90;;;18.60;99.90;;;;;;5081875;28;20067;-88
2021/07/09 11:26:20;;;;;;;10.23;5.97;;;18.70;99.90;;;;;;5099952;22;20541;-86
2021/07/09 11:29:19;;;;;;;10.57;6.45;;;18.80;99.90;;;;;;5042281;28;20092;-86
2021/07/09 11:32:14;;;;;;;12.75;6.13;;;19.00;99.90;;;;;;5032789;28;20511;-85
2021/07/09 11:35:02;;;;;;;14.23;6.68;;;19.00;99.90;;;;;;5046331;28;20041;-85
2021/07/09 11:37:49;;;;;;;11.40;7.15;;;18.90;99.90;;;;;;5046279;28;20041;-84
2021/07/09 11:40:36;;;;;;;10.02;6.50;;;19.00;99.90;;;;;;5046310;28;20049;-86
2021/07/09 11:43:24;;;;;;;11.68;6.75;;;19.00;99.90;;;;;;5032648;28;20052;-84
2021/07/09 11:46:12;;;;;;;11.43;6.85;;;19.00;99.90;;;;;;5038287;28;20045;-86
2021/07/09 11:49:01;;;;;;;14.25;7.20;;;19.00;99.90;;;;;;5040679;28;20045;-85
2021/07/09 11:51:50;;;;;;;11.48;7.20;;;19.00;99.90;;;;;;5036738;28;20562;-86
2021/07/09 11:54:38;;;;;;;13.63;7.10;;;19.80;99.90;;;;;;5038108;28;20124;-86
2021/07/09 11:57:28;;;;;;;10.07;6.05;;;19.20;99.90;;;;;;5035746;28;20049;-86
2021/07/09 12:00:26;;;;;;;11.70;6.28;;;19.30;99.90;;;;;;5022616;28;20058;-85
2021/07/09 12:03:13;;;;;;;11.00;6.32;;;19.60;99.90;;;;;;5034234;28;20531;-86
2021/07/09 12:06:18;;;;;;;12.23;6.00;;;19.80;99.90;;;;;;5018477;28;20121;-86
2021/07/09 12:09:05;;;;;;;10.25;6.57;;;20.00;99.90;;;;;;5033612;28;20049;-85
2021/07/09 12:11:58;;;;;;;11.02;6.70;;;20.20;99.90;;;;;;5033519;28;20045;-86
2021/07/09 12:14:50;;;;;;;12.05;6.93;;;20.20;99.90;;;;;;5018562;28;20046;-83
2021/07/09 12:17:39;;;;;;;12.05;7.28;;;20.00;99.90;;;;;;5018761;28;20107;-81
2021/07/09 12:20:28;;;;;;;12.55;7.35;;;20.00;99.90;;;;;;5033278;28;20046;-86
2021/07/09 12:23:18;;;;;;;12.13;7.82;;;19.80;99.90;;;;;;5034271;28;20479;-86
2021/07/09 12:26:05;;;;;;;;;;;20.20;99.90;;;;;;5018422;28;20555;-86
2021/07/09 12:28:52;;;;;;;10.80;6.65;;;20.50;99.90;;;;;;5032696;28;20382;-86
2021/07/09 12:31:40;;;;;;;13.27;7.68;;;20.50;99.90;;;;;;5032964;28;20048;-85
2021/07/09 12:34:27;;;;;;;16.40;8.15;;;20.40;99.90;;;;;;5014258;28;20054;-86
2021/07/09 12:37:23;;;;;;;12.60;7.90;;;20.10;99.90;;;;;;4999329;28;20234;-87
2021/07/09 12:40:14;;;;;;;14.13;7.75;;;20.40;99.90;;;;;;4998303;28;20045;-87
2021/07/09 12:43:16;;;;;;;14.75;7.50;;;20.40;99.90;;;;;;4999877;28;20125;-86
2021/07/09 12:46:06;;;;;;;13.65;7.95;;;20.50;99.90;;;;;;5012537;28;20125;-85
2021/07/09 12:48:57;;;;;;;13.27;7.88;;;20.60;99.90;;;;;;5012615;28;20331;-87
2021/07/09 12:51:45;;;;;;;11.55;7.35;;;20.50;99.90;;;;;;4998415;28;20046;-87
2021/07/09 12:54:33;;;;;;;13.90;7.88;;;20.60;99.90;;;;;;4998713;28;20181;-85
2021/07/09 12:57:24;;;;;;;12.68;7.57;;;20.50;99.90;;;;;;4998718;28;20060;-86
2021/07/09 13:00:13;;;;;;;15.77;8.00;;;20.40;99.90;;;;;;4997876;28;20181;-86
2021/07/09 13:03:00;;;;;;;13.98;8.45;;;20.40;99.90;;;;;;4997789;28;20317;-86
2021/07/09 13:06:02;;;;;;;13.30;7.45;;;20.40;99.90;;;;;;5013290;28;20510;-86
2021/07/09 13:09:08;;;;;;;16.50;8.63;;;20.40;99.90;;;;;;5012817;28;20052;-87
2021/07/09 13:11:55;;;;;;;14.63;8.90;;;20.10;99.90;;;;;;5018159;28;20120;-83
2021/07/09 13:14:53;;;;;;;13.20;8.05;;;20.00;99.90;;;;;;5031620;28;20045;-86
2021/07/09 13:17:40;;;;;;;13.73;8.55;;;20.00;99.90;;;;;;5032819;28;20041;-83
2021/07/09 13:20:27;;;;;;;13.82;8.85;;;20.00;99.90;;;;;;5032029;28;20050;-85
2021/07/09 13:23:14;;;;;;;12.25;8.20;;;19.90;99.90;;;;;;5017746;28;20051;-86
2021/07/09 13:26:13;;;;;;;13.18;8.82;;;20.00;99.90;;;;;;5031412;28;20055;-82
2021/07/09 13:29:02;;;;;;;13.02;8.05;;;19.80;99.90;;;;;;5032218;28;20081;-86
2021/07/09 13:31:53;;;;;;;14.40;8.63;;;19.90;99.90;;;;;;5032177;28;20046;-85
2021/07/09 13:34:42;;;;;;;12.60;8.27;;;20.00;99.90;;;;;;5017533;28;20076;-83
2021/07/09 13:37:29;;;;;;;14.73;8.57;;;20.10;99.90;;;;;;5017130;28;20052;-86
2021/07/09 13:40:17;;;;;;;13.52;8.20;;;20.20;99.90;;;;;;5018438;28;20045;-85
2021/07/09 13:43:13;;;;;;;12.48;8.57;;;20.10;99.90;;;;;;5031105;28;20091;-83
2021/07/09 13:46:00;;;;;;;14.23;8.77;;;20.20;99.90;;;;;;5018396;28;20044;-86
2021/07/09 13:48:49;;;;;;;15.05;8.75;;;20.30;99.90;;;;;;5016541;28;20057;-85
2021/07/09 13:51:36;;;;;;;15.60;9.00;;;20.30;99.90;;;;;;5030781;28;20503;-86
2021/07/09 13:54:23;;;;;;;12.85;8.23;;;20.30;99.90;;;;;;5018222;28;20287;-84
2021/07/09 13:57:10;;;;;;;14.43;8.52;;;20.20;99.90;;;;;;5016807;28;20491;-87
2021/07/09 13:59:57;;;;;;;13.82;8.32;;;20.20;99.90;;;;;;5030354;28;20056;-86
2021/07/09 14:02:45;;;;;;;11.27;8.05;;;20.40;99.90;;;;;;5018021;28;20125;-86
2021/07/09 14:05:33;;;;;;;14.85;8.10;;;20.50;99.90;;;;;;5018295;28;20037;-85
2021/07/09 14:08:21;;;;;;;11.57;7.95;;;20.70;99.90;;;;;;5030301;28;20050;-85
2021/07/09 14:11:09;;;;;;;12.85;7.97;;;20.80;99.90;;;;;;5017375;28;20426;-82
2021/07/09 14:13:56;;;;;;;11.77;6.93;;;20.80;99.90;;;;;;4998469;28;20408;-86
2021/07/09 14:16:45;;;;;;;13.13;8.25;;;20.90;99.90;;;;;;5010684;28;20124;-86
2021/07/09 14:19:34;;;;;;;14.32;7.32;;;20.80;99.90;;;;;;5010282;28;20505;-86